Decatur, Michigan
Current Conditions -  °F | °C
As of 4:15 AM on Monday 22 Dec 2014 (Local Time) from KHAI Reporting Station
Haze Haze  
Wind Chill: 21°   Ceiling: Unl
Heat Index: 27°   Visibility: 5mi
Dew Point: 23°   Wind: 6mph
Humidity: 86%   Direction: 110°ESE
Pressure: 30.05"   Gusts: NA
Location:  42.11°N, 85.97°W
Report Text: KHAI 220915Z AUTO 11005KT 5SM BR CLR M03/M05 A3005 RMK AO2 T10271048
Loading
Personal Weather Stations






























Interactive Weather Map New forecast layout! Learn more

10-Day Weather Forecast

Advertisements
Track Severe Weather on mobile